Time;durP1;ratioP1;P1;durP2;ratioP2;P2;SDS_P1;SDS_P2;PMS_P1;PMS_P2;Temp;Humidity;BMP_temperature;BMP_pressure;BME280_temperature;BME280_humidity;BME280_pressure;Samples;Min_cycle;Max_cycle;Signal;HPM_P1;HPM_P2
2023/01/14 00:01:46;;;;;;;;;16.75;13.25;;;;;;;;5010734;28;45390;-81
2023/01/14 00:04:13;;;;;;;;;13.25;9.00;;;;;;;;5015724;28;45267;-81
2023/01/14 00:06:38;;;;;;;;;91.00;70.25;;;;;;;;5003194;28;46949;-81
2023/01/14 00:09:04;;;;;;;;;44.00;34.00;;;;;;;;5017099;28;45209;-81
2023/01/14 00:14:21;;;;;;;;;13.25;8.50;;;;;;;;5004066;28;45162;-81
2023/01/14 00:16:47;;;;;;;;;11.25;10.00;;;;;;;;5015608;28;45278;-81
2023/01/14 00:19:13;;;;;;;;;9.00;6.50;;;;;;;;5014398;28;45285;-81
2023/01/14 00:21:40;;;;;;;;;11.00;7.75;;;;;;;;5006878;28;45153;-81
2023/01/14 00:24:06;;;;;;;;;10.75;7.50;;;;;;;;5014006;28;45010;-79
2023/01/14 00:26:31;;;;;;;;;3.25;2.00;;;;;;;;5016143;28;45390;-80
2023/01/14 00:28:56;;;;;;;;;8.25;8.25;;;;;;;;5015729;28;45306;-81
2023/01/14 00:31:24;;;;;;;;;16.50;11.25;;;;;;;;5012964;28;45325;-80
2023/01/14 00:33:49;;;;;;;;;12.00;9.00;;;;;;;;5016675;28;45268;-80
2023/01/14 00:36:16;;;;;;;;;17.50;11.25;;;;;;;;5015457;28;45447;-80
2023/01/14 00:38:41;;;;;;;;;5.25;5.25;;;;;;;;5017112;28;45425;-80
2023/01/14 00:41:08;;;;;;;;;7.25;1.75;;;;;;;;5004512;28;45233;-81
2023/01/14 00:43:34;;;;;;;;;3.75;3.00;;;;;;;;5016787;28;46322;-80
2023/01/14 00:45:59;;;;;;;;;14.75;11.00;;;;;;;;5014691;28;46890;-80
2023/01/14 00:48:25;;;;;;;;;5.75;3.00;;;;;;;;5024514;28;45240;-81
2023/01/14 00:50:50;;;;;;;;;3.25;2.75;;;;;;;;5005905;28;45284;-80
2023/01/14 00:53:16;;;;;;;;;2.00;2.00;;;;;;;;5019359;28;45391;-80
2023/01/14 00:55:41;;;;;;;;;5.00;5.00;;;;;;;;5005272;28;45327;-79
2023/01/14 00:58:06;;;;;;;;;10.00;8.00;;;;;;;;5011151;28;44789;-78
2023/01/14 01:00:31;;;;;;;;;0.25;0.25;;;;;;;;5005095;28;45369;-79
2023/01/14 01:02:57;;;;;;;;;3.25;0.00;;;;;;;;5006328;28;45412;-80
2023/01/14 01:05:22;;;;;;;;;3.25;1.00;;;;;;;;5004222;28;46175;-79
2023/01/14 01:07:47;;;;;;;;;4.00;2.00;;;;;;;;5010799;28;45510;-80
2023/01/14 01:10:13;;;;;;;;;2.00;2.00;;;;;;;;5012877;28;45308;-79
2023/01/14 01:12:38;;;;;;;;;1.25;1.25;;;;;;;;5007677;28;45221;-80
2023/01/14 01:15:03;;;;;;;;;2.00;2.00;;;;;;;;5008938;28;45485;-81
2023/01/14 01:17:28;;;;;;;;;4.00;1.00;;;;;;;;5009249;28;45308;-81
2023/01/14 01:19:54;;;;;;;;;4.25;2.00;;;;;;;;5006625;28;44796;-78
2023/01/14 01:22:19;;;;;;;;;1.50;1.00;;;;;;;;5003948;28;45237;-81
2023/01/14 01:24:45;;;;;;;;;1.25;1.00;;;;;;;;5004454;28;45238;-81
2023/01/14 01:27:10;;;;;;;;;2.00;2.00;;;;;;;;5011156;28;45146;-80
2023/01/14 01:29:35;;;;;;;;;2.75;1.50;;;;;;;;5015544;28;45847;-82
2023/01/14 01:32:00;;;;;;;;;1.75;1.75;;;;;;;;5006633;28;45692;-81
2023/01/14 01:34:25;;;;;;;;;1.50;1.50;;;;;;;;5005244;28;46043;-81
2023/01/14 01:36:51;;;;;;;;;10.25;6.50;;;;;;;;5005541;28;45182;-81
2023/01/14 01:39:16;;;;;;;;;2.00;2.00;;;;;;;;5015627;28;45288;-80
2023/01/14 01:41:41;;;;;;;;;2.00;2.00;;;;;;;;5005489;28;45348;-80
2023/01/14 01:44:12;;;;;;;;;1.50;1.50;;;;;;;;5007838;28;45161;-80
2023/01/14 01:46:38;;;;;;;;;6.00;4.00;;;;;;;;5014179;28;45311;-81
2023/01/14 01:49:08;;;;;;;;;4.50;2.00;;;;;;;;5015094;28;45345;-81
2023/01/14 01:51:35;;;;;;;;;2.25;2.00;;;;;;;;5006513;28;44777;-81
2023/01/14 01:54:01;;;;;;;;;3.50;2.00;;;;;;;;5008241;28;45301;-80
2023/01/14 01:56:28;;;;;;;;;2.00;0.75;;;;;;;;5017331;28;45375;-80
2023/01/14 01:58:55;;;;;;;;;3.00;2.00;;;;;;;;5014468;28;45295;-80
2023/01/14 02:01:20;;;;;;;;;1.00;1.00;;;;;;;;5009702;28;45457;-80
2023/01/14 02:03:47;;;;;;;;;2.00;2.00;;;;;;;;5016223;28;45309;-81
2023/01/14 02:06:13;;;;;;;;;1.75;1.75;;;;;;;;5011884;28;45292;-81
2023/01/14 02:08:40;;;;;;;;;3.00;1.75;;;;;;;;5019747;28;45488;-79
2023/01/14 02:11:05;;;;;;;;;1.25;1.00;;;;;;;;5017569;28;46198;-80
2023/01/14 02:13:37;;;;;;;;;1.00;1.00;;;;;;;;5018720;28;45314;-80
2023/01/14 02:16:05;;;;;;;;;1.75;1.00;;;;;;;;5017323;28;45433;-80
2023/01/14 02:18:44;;;;;;;;;0.25;0.25;;;;;;;;5018533;28;45360;-79
2023/01/14 02:21:17;;;;;;;;;1.00;1.00;;;;;;;;5017455;28;45238;-79
2023/01/14 02:23:52;;;;;;;;;1.75;1.00;;;;;;;;5023172;28;45333;-80
2023/01/14 02:26:17;;;;;;;;;1.25;1.25;;;;;;;;5025657;28;45327;-80
2023/01/14 02:28:45;;;;;;;;;1.50;1.50;;;;;;;;5030407;28;45224;-80
2023/01/14 02:31:27;;;;;;;;;1.75;1.00;;;;;;;;5017529;28;45539;-80
2023/01/14 02:33:56;;;;;;;;;2.75;1.00;;;;;;;;5010661;28;46149;-81
2023/01/14 02:36:41;;;;;;;;;1.00;1.00;;;;;;;;5025100;28;45271;-83
2023/01/14 02:39:16;;;;;;;;;1.00;1.00;;;;;;;;5021038;28;45225;-81
2023/01/14 02:44:27;;;;;;;;;1.00;0.00;;;;;;;;5017647;28;45335;-82
2023/01/14 02:47:05;;;;;;;;;0.00;0.00;;;;;;;;5018314;28;45194;-81
2023/01/14 02:49:32;;;;;;;;;0.75;0.00;;;;;;;;5017986;28;45311;-80
2023/01/14 02:51:58;;;;;;;;;3.00;1.00;;;;;;;;5020060;28;45677;-81
2023/01/14 02:54:24;;;;;;;;;1.00;0.00;;;;;;;;5018716;28;46189;-81
2023/01/14 02:56:50;;;;;;;;;0.00;0.00;;;;;;;;5020037;28;45388;-80
2023/01/14 02:59:18;;;;;;;;;0.50;0.50;;;;;;;;5017832;28;45401;-80
2023/01/14 03:01:51;;;;;;;;;1.00;0.00;;;;;;;;5012551;28;45424;-79
2023/01/14 03:04:22;;;;;;;;;1.00;1.00;;;;;;;;5015622;28;46442;-80
2023/01/14 03:06:56;;;;;;;;;0.00;0.00;;;;;;;;5008783;28;45370;-80
2023/01/14 03:09:29;;;;;;;;;1.00;1.00;;;;;;;;5012011;28;45332;-80
2023/01/14 03:12:13;;;;;;;;;3.50;1.00;;;;;;;;5006275;28;45487;-80
2023/01/14 03:14:41;;;;;;;;;2.50;1.00;;;;;;;;5012422;28;45315;-80
2023/01/14 03:17:25;;;;;;;;;1.50;1.50;;;;;;;;5015912;28;45348;-81
2023/01/14 03:19:56;;;;;;;;;0.75;0.75;;;;;;;;5010690;28;45318;-82
2023/01/14 03:22:22;;;;;;;;;3.50;1.25;;;;;;;;5009270;28;45352;-80
2023/01/14 03:24:50;;;;;;;;;0.25;0.00;;;;;;;;5009848;28;45344;-79
2023/01/14 03:27:19;;;;;;;;;2.25;1.00;;;;;;;;5020520;28;45481;-80
2023/01/14 03:29:46;;;;;;;;;1.00;1.00;;;;;;;;5014693;28;45256;-80
2023/01/14 03:32:18;;;;;;;;;1.33;0.00;;;;;;;;5015230;28;45266;-80
2023/01/14 03:34:47;;;;;;;;;1.00;1.00;;;;;;;;5019433;28;46359;-79
2023/01/14 03:37:14;;;;;;;;;0.25;0.00;;;;;;;;5018243;28;44651;-80
2023/01/14 03:39:42;;;;;;;;;3.00;0.00;;;;;;;;5020515;28;44801;-80
2023/01/14 03:42:18;;;;;;;;;3.00;1.00;;;;;;;;5020797;28;45538;-80
2023/01/14 03:44:49;;;;;;;;;0.00;0.00;;;;;;;;5012466;28;45364;-80
2023/01/14 03:47:14;;;;;;;;;2.25;1.00;;;;;;;;5012681;28;45464;-80
2023/01/14 03:49:39;;;;;;;;;2.00;1.00;;;;;;;;5021095;28;45498;-80
2023/01/14 03:52:05;;;;;;;;;3.00;1.25;;;;;;;;5012679;28;45342;-81
2023/01/14 03:54:36;;;;;;;;;3.25;0.00;;;;;;;;5011547;28;46964;-81
2023/01/14 03:57:06;;;;;;;;;2.25;2.25;;;;;;;;5012431;28;45296;-80
2023/01/14 03:59:36;;;;;;;;;2.75;1.00;;;;;;;;5008571;28;45261;-80
2023/01/14 04:02:03;;;;;;;;;2.25;1.00;;;;;;;;5001632;28;45329;-80
2023/01/14 04:04:29;;;;;;;;;4.00;0.75;;;;;;;;5010134;28;45271;-79
2023/01/14 04:06:55;;;;;;;;;1.75;0.75;;;;;;;;5002777;28;45272;-79
2023/01/14 04:09:20;;;;;;;;;1.50;1.00;;;;;;;;5004012;28;45885;-79
2023/01/14 04:11:45;;;;;;;;;2.50;0.50;;;;;;;;5003391;28;45399;-80
2023/01/14 04:16:54;;;;;;;;;1.50;1.00;;;;;;;;5006432;28;45442;-81
2023/01/14 04:19:19;;;;;;;;;4.25;3.25;;;;;;;;5014813;28;45486;-81
2023/01/14 04:21:45;;;;;;;;;1.00;1.00;;;;;;;;5016641;28;45344;-80
2023/01/14 04:24:10;;;;;;;;;1.25;0.00;;;;;;;;5006806;28;45046;-80
2023/01/14 04:26:35;;;;;;;;;1.00;1.00;;;;;;;;5012553;28;45307;-80
2023/01/14 04:29:00;;;;;;;;;4.00;1.00;;;;;;;;5017226;28;45391;-80
2023/01/14 04:31:25;;;;;;;;;1.75;1.00;;;;;;;;5012876;28;45295;-80
2023/01/14 04:33:51;;;;;;;;;5.25;1.50;;;;;;;;5009888;28;45497;-81
2023/01/14 04:36:16;;;;;;;;;3.00;2.00;;;;;;;;5015583;28;45340;-80
2023/01/14 04:38:41;;;;;;;;;3.50;1.00;;;;;;;;5010947;28;45430;-80
2023/01/14 04:42:25;;;;;;;;;4.00;1.75;;;;;;;;5017024;28;45661;-80
2023/01/14 04:43:52;;;;;;;;;4.50;1.75;;;;;;;;5019532;28;45416;-80
2023/01/14 04:46:17;;;;;;;;;3.00;2.00;;;;;;;;5011959;28;45451;-80
2023/01/14 04:48:42;;;;;;;;;5.25;1.75;;;;;;;;5009052;28;45687;-82
2023/01/14 04:51:08;;;;;;;;;3.00;3.00;;;;;;;;5016825;28;45234;-80
2023/01/14 04:53:33;;;;;;;;;2.50;1.75;;;;;;;;5005423;28;45515;-80
2023/01/14 04:55:58;;;;;;;;;2.75;2.00;;;;;;;;5019502;28;45351;-81
2023/01/14 04:58:25;;;;;;;;;3.00;2.00;;;;;;;;5013157;28;45308;-80
2023/01/14 05:00:51;;;;;;;;;4.00;2.00;;;;;;;;5005685;28;45451;-81
2023/01/14 05:03:16;;;;;;;;;2.25;2.25;;;;;;;;5020009;28;45292;-80
2023/01/14 05:05:41;;;;;;;;;8.50;3.50;;;;;;;;5005685;28;45269;-80
2023/01/14 05:08:08;;;;;;;;;5.50;2.00;;;;;;;;5021228;28;45150;-80
2023/01/14 05:10:33;;;;;;;;;3.00;1.75;;;;;;;;5009949;28;45376;-81
2023/01/14 05:13:00;;;;;;;;;3.25;1.00;;;;;;;;5021770;28;45267;-80
2023/01/14 05:15:30;;;;;;;;;4.00;4.00;;;;;;;;5017389;28;45363;-79
2023/01/14 05:17:55;;;;;;;;;2.00;2.00;;;;;;;;5009854;28;45248;-80
2023/01/14 05:20:21;;;;;;;;;1.75;0.75;;;;;;;;5008370;28;45043;-80
2023/01/14 05:22:46;;;;;;;;;2.50;2.25;;;;;;;;5018089;28;46889;-80
2023/01/14 05:25:11;;;;;;;;;2.75;2.00;;;;;;;;5010360;28;45217;-81
2023/01/14 05:27:36;;;;;;;;;6.00;2.75;;;;;;;;5015399;28;45414;-80
2023/01/14 05:30:02;;;;;;;;;5.50;4.00;;;;;;;;5012205;28;45395;-80
2023/01/14 05:32:27;;;;;;;;;3.00;1.50;;;;;;;;5014051;28;45402;-81
2023/01/14 05:34:53;;;;;;;;;1.00;1.00;;;;;;;;5012155;28;45374;-79
2023/01/14 05:37:18;;;;;;;;;3.25;2.00;;;;;;;;5013388;28;45212;-81
2023/01/14 05:39:43;;;;;;;;;4.00;2.00;;;;;;;;5018002;28;45231;-81
2023/01/14 05:47:36;;;;;;;;;2.50;1.00;;;;;;;;5019595;28;45289;-80
2023/01/14 05:50:01;;;;;;;;;3.25;2.00;;;;;;;;5014251;28;45348;-81
2023/01/14 05:52:27;;;;;;;;;1.50;1.50;;;;;;;;5015700;28;45215;-80
2023/01/14 05:54:52;;;;;;;;;2.50;2.00;;;;;;;;5016028;28;45369;-80
2023/01/14 05:57:17;;;;;;;;;1.00;1.00;;;;;;;;5010734;28;45294;-79
2023/01/14 05:59:42;;;;;;;;;1.50;1.50;;;;;;;;5009718;28;45486;-81
2023/01/14 06:07:36;;;;;;;;;1.33;1.00;;;;;;;;5020226;28;46277;-81
2023/01/14 06:10:03;;;;;;;;;2.00;1.00;;;;;;;;5010647;28;45212;-80
2023/01/14 06:12:39;;;;;;;;;2.00;1.75;;;;;;;;5019276;28;45375;-78
2023/01/14 06:15:05;;;;;;;;;1.00;1.00;;;;;;;;5021869;28;45307;-79
2023/01/14 06:17:34;;;;;;;;;6.00;1.50;;;;;;;;5021751;28;45388;-79
2023/01/14 06:19:59;;;;;;;;;2.00;1.00;;;;;;;;5021058;28;45935;-80
2023/01/14 06:22:25;;;;;;;;;0.00;0.00;;;;;;;;5024219;28;45645;-78
2023/01/14 06:24:50;;;;;;;;;3.00;1.00;;;;;;;;5015353;28;45225;-82
2023/01/14 06:27:15;;;;;;;;;5.00;2.00;;;;;;;;5013343;28;45279;-77
2023/01/14 06:29:41;;;;;;;;;4.25;1.25;;;;;;;;5016133;28;45606;-77
2023/01/14 06:32:06;;;;;;;;;5.00;1.50;;;;;;;;5019731;28;45491;-77
2023/01/14 06:34:31;;;;;;;;;2.00;1.00;;;;;;;;5020582;28;45244;-77
2023/01/14 06:36:56;;;;;;;;;3.00;1.00;;;;;;;;5013242;28;45541;-79
2023/01/14 06:39:22;;;;;;;;;2.75;1.00;;;;;;;;5011656;28;44749;-76
2023/01/14 06:41:47;;;;;;;;;1.00;1.00;;;;;;;;5020083;28;45232;-75
2023/01/14 06:44:12;;;;;;;;;1.00;1.00;;;;;;;;5022999;28;45209;-79
2023/01/14 06:46:37;;;;;;;;;2.25;0.50;;;;;;;;5015501;28;45201;-79
2023/01/14 06:49:02;;;;;;;;;1.00;1.00;;;;;;;;5022219;28;45132;-78
2023/01/14 06:51:28;;;;;;;;;3.25;1.00;;;;;;;;5011086;28;45525;-77
2023/01/14 06:53:53;;;;;;;;;2.75;1.00;;;;;;;;5012142;28;45245;-75
2023/01/14 06:56:19;;;;;;;;;1.25;1.25;;;;;;;;5003944;28;45144;-76
2023/01/14 06:58:48;;;;;;;;;1.00;1.00;;;;;;;;5019106;28;45506;-77
2023/01/14 07:01:13;;;;;;;;;0.33;0.33;;;;;;;;5012013;28;46296;-78
2023/01/14 07:03:39;;;;;;;;;5.00;2.00;;;;;;;;5018796;28;45509;-79
2023/01/14 07:06:04;;;;;;;;;4.75;1.00;;;;;;;;5007161;28;45759;-78
2023/01/14 07:08:29;;;;;;;;;3.00;1.50;;;;;;;;5016989;28;45382;-78
2023/01/14 07:10:55;;;;;;;;;4.00;1.50;;;;;;;;5005426;28;45544;-78
2023/01/14 07:13:21;;;;;;;;;2.25;2.00;;;;;;;;5019713;28;45314;-77
2023/01/14 07:15:47;;;;;;;;;1.00;1.00;;;;;;;;5015535;28;45521;-76
2023/01/14 07:18:13;;;;;;;;;1.00;1.00;;;;;;;;5013166;28;45217;-77
2023/01/14 07:20:39;;;;;;;;;3.75;1.50;;;;;;;;5014118;28;46675;-78
2023/01/14 07:23:04;;;;;;;;;3.50;1.00;;;;;;;;5011586;28;46094;-78
2023/01/14 07:25:30;;;;;;;;;4.50;2.00;;;;;;;;5014602;28;45751;-78
2023/01/14 07:27:55;;;;;;;;;5.75;1.00;;;;;;;;5018783;28;44936;-78
2023/01/14 07:30:20;;;;;;;;;2.67;0.00;;;;;;;;5013396;28;45395;-77
2023/01/14 07:32:46;;;;;;;;;2.50;2.00;;;;;;;;5020232;28;45950;-78
2023/01/14 07:35:11;;;;;;;;;3.00;1.00;;;;;;;;5018193;28;45039;-79
2023/01/14 07:37:36;;;;;;;;;2.00;1.00;;;;;;;;5015325;28;45248;-78
2023/01/14 07:40:02;;;;;;;;;0.75;0.75;;;;;;;;5013302;28;47145;-77
2023/01/14 07:42:27;;;;;;;;;3.00;1.25;;;;;;;;5012450;28;45386;-78
2023/01/14 07:44:52;;;;;;;;;1.50;1.50;;;;;;;;5012270;28;45286;-77
2023/01/14 07:47:18;;;;;;;;;1.25;0.50;;;;;;;;5011955;28;45481;-76
2023/01/14 07:49:43;;;;;;;;;1.75;1.00;;;;;;;;5014910;28;45361;-77
2023/01/14 07:52:12;;;;;;;;;4.50;1.00;;;;;;;;5011536;28;45308;-78
2023/01/14 07:54:38;;;;;;;;;0.67;0.00;;;;;;;;5013871;28;45410;-77
2023/01/14 07:57:04;;;;;;;;;1.75;1.75;;;;;;;;5011660;28;45280;-78
2023/01/14 07:59:29;;;;;;;;;3.25;1.00;;;;;;;;5016869;28;46200;-76
2023/01/14 08:01:54;;;;;;;;;2.00;2.00;;;;;;;;5000562;28;45217;-77
2023/01/14 08:04:19;;;;;;;;;0.75;0.00;;;;;;;;5013632;28;45272;-79
2023/01/14 08:06:44;;;;;;;;;0.00;0.00;;;;;;;;5003175;28;45281;-76
2023/01/14 08:09:10;;;;;;;;;2.00;1.00;;;;;;;;5011552;28;46555;-77
2023/01/14 08:11:36;;;;;;;;;1.33;1.00;;;;;;;;5006505;28;45393;-76
2023/01/14 08:14:01;;;;;;;;;1.00;1.00;;;;;;;;5015499;28;45473;-79
2023/01/14 08:16:26;;;;;;;;;1.00;1.00;;;;;;;;5004469;28;45375;-79
2023/01/14 08:18:51;;;;;;;;;3.33;0.33;;;;;;;;5016959;28;45639;-79
2023/01/14 08:21:17;;;;;;;;;2.50;2.00;;;;;;;;5006414;28;45295;-80
2023/01/14 08:23:42;;;;;;;;;2.00;0.33;;;;;;;;5006264;28;45348;-80
2023/01/14 08:26:09;;;;;;;;;4.00;2.00;;;;;;;;5011083;28;45594;-77
2023/01/14 08:28:34;;;;;;;;;1.33;1.00;;;;;;;;5016833;28;45631;-78
2023/01/14 08:31:06;;;;;;;;;5.25;5.25;;;;;;;;5012151;28;45313;-79
2023/01/14 08:33:31;;;;;;;;;7.75;6.25;;;;;;;;5017945;28;45558;-79
2023/01/14 08:35:59;;;;;;;;;5.00;3.00;;;;;;;;5004469;28;45546;-78
2023/01/14 08:38:25;;;;;;;;;3.00;2.00;;;;;;;;5010407;28;45337;-82
2023/01/14 08:40:51;;;;;;;;;5.00;4.00;;;;;;;;5002285;28;45419;-80
2023/01/14 08:43:17;;;;;;;;;5.50;3.50;;;;;;;;5014015;28;45242;-80
2023/01/14 08:45:42;;;;;;;;;2.00;2.00;;;;;;;;5013664;28;45640;-78
2023/01/14 08:48:07;;;;;;;;;6.00;2.75;;;;;;;;5004556;28;45434;-81
2023/01/14 08:50:32;;;;;;;;;6.33;1.00;;;;;;;;5012545;28;45001;-80
2023/01/14 08:52:58;;;;;;;;;4.50;1.00;;;;;;;;5004204;28;45304;-79
2023/01/14 08:55:23;;;;;;;;;1.00;1.00;;;;;;;;5016643;28;45146;-80
2023/01/14 08:57:48;;;;;;;;;1.67;1.67;;;;;;;;5008505;28;45196;-78
2023/01/14 09:00:14;;;;;;;;;1.00;1.00;;;;;;;;5001543;28;45380;-76
2023/01/14 09:02:39;;;;;;;;;3.00;2.50;;;;;;;;5018344;28;44780;-80
2023/01/14 09:05:05;;;;;;;;;4.50;2.00;;;;;;;;5013579;28;45267;-77
2023/01/14 09:18:34;;;;;;;;;0.67;0.67;;;;;;;;5014624;28;45904;-77
2023/01/14 09:21:00;;;;;;;;;1.00;1.00;;;;;;;;5008840;28;45875;-77
2023/01/14 09:23:25;;;;;;;;;1.00;1.00;;;;;;;;5008347;28;45214;-76
2023/01/14 09:25:50;;;;;;;;;4.00;1.00;;;;;;;;5006379;28;46183;-75
2023/01/14 09:28:15;;;;;;;;;1.00;1.00;;;;;;;;5014313;28;45490;-79
2023/01/14 09:30:41;;;;;;;;;1.00;1.00;;;;;;;;5011229;28;44800;-73
2023/01/14 09:33:06;;;;;;;;;0.67;0.67;;;;;;;;5018417;28;45215;-77
2023/01/14 09:35:31;;;;;;;;;1.00;1.00;;;;;;;;5008631;28;45335;-75
2023/01/14 09:37:57;;;;;;;;;1.00;1.00;;;;;;;;5014023;28;46290;-76
2023/01/14 09:40:22;;;;;;;;;1.00;1.00;;;;;;;;5013482;28;45266;-78
2023/01/14 09:42:49;;;;;;;;;0.00;0.00;;;;;;;;5007080;28;45322;-76
2023/01/14 09:45:14;;;;;;;;;1.00;0.00;;;;;;;;5008040;28;45297;-78
2023/01/14 09:47:40;;;;;;;;;0.00;0.00;;;;;;;;5014450;28;45291;-77
2023/01/14 09:50:07;;;;;;;;;1.00;0.00;;;;;;;;5011523;28;45311;-80
2023/01/14 09:52:45;;;;;;;;;1.00;1.00;;;;;;;;5016542;28;45371;-79
2023/01/14 09:55:21;;;;;;;;;3.00;1.00;;;;;;;;5003085;28;44882;-80
2023/01/14 09:57:52;;;;;;;;;2.00;0.00;;;;;;;;5010766;28;45271;-80
2023/01/14 10:00:29;;;;;;;;;3.33;2.00;;;;;;;;5007944;28;45379;-79
2023/01/14 10:03:13;;;;;;;;;0.00;0.00;;;;;;;;5008951;28;45565;-77
2023/01/14 10:05:39;;;;;;;;;0.00;0.00;;;;;;;;5019003;28;45413;-76
2023/01/14 10:08:05;;;;;;;;;1.67;1.00;;;;;;;;5022545;28;45374;-82
2023/01/14 10:10:35;;;;;;;;;1.00;1.00;;;;;;;;5012793;28;45660;-74
2023/01/14 10:13:03;;;;;;;;;1.67;1.67;;;;;;;;5011082;28;45174;-75
2023/01/14 10:15:41;;;;;;;;;1.00;1.00;;;;;;;;5015954;28;46172;-74
2023/01/14 10:18:13;;;;;;;;;1.00;1.00;;;;;;;;5010529;28;45236;-78
2023/01/14 10:20:53;;;;;;;;;3.00;1.00;;;;;;;;5015070;28;45316;-77
2023/01/14 10:23:22;;;;;;;;;1.00;1.00;;;;;;;;5012907;28;44823;-78
2023/01/14 10:25:48;;;;;;;;;5.00;2.00;;;;;;;;5011025;28;45825;-76
2023/01/14 10:28:15;;;;;;;;;0.00;0.00;;;;;;;;5018512;28;45281;-75
2023/01/14 10:30:41;;;;;;;;;3.00;2.67;;;;;;;;5016869;28;45319;-76
2023/01/14 10:33:06;;;;;;;;;1.67;1.00;;;;;;;;5016979;28;45165;-76
2023/01/14 10:35:36;;;;;;;;;1.00;1.00;;;;;;;;5010484;28;45162;-75
2023/01/14 10:38:02;;;;;;;;;2.33;1.00;;;;;;;;5022291;28;47411;-75
2023/01/14 10:40:29;;;;;;;;;2.00;1.00;;;;;;;;5004846;28;45506;-74
2023/01/14 10:42:55;;;;;;;;;1.00;1.00;;;;;;;;5018312;28;45316;-75
2023/01/14 10:45:21;;;;;;;;;1.00;1.00;;;;;;;;5005839;28;45379;-75
2023/01/14 10:47:47;;;;;;;;;1.00;1.00;;;;;;;;5016780;28;46760;-75
2023/01/14 10:50:17;;;;;;;;;1.00;1.00;;;;;;;;5006925;28;45392;-75
2023/01/14 10:52:44;;;;;;;;;2.00;1.00;;;;;;;;5017600;28;45272;-75
2023/01/14 10:55:14;;;;;;;;;3.00;1.00;;;;;;;;5008353;28;45561;-76
2023/01/14 10:57:43;;;;;;;;;2.00;2.00;;;;;;;;5003973;28;45571;-77
2023/01/14 11:00:25;;;;;;;;;2.00;1.33;;;;;;;;5013658;28;45482;-76
2023/01/14 11:02:51;;;;;;;;;4.00;2.33;;;;;;;;5018385;28;45169;-78
2023/01/14 11:05:30;;;;;;;;;3.67;2.00;;;;;;;;5006797;28;45518;-76
2023/01/14 11:07:57;;;;;;;;;2.67;2.67;;;;;;;;5010371;28;45486;-77
2023/01/14 11:10:23;;;;;;;;;3.00;2.33;;;;;;;;5011264;28;45174;-77
2023/01/14 11:12:50;;;;;;;;;6.00;5.00;;;;;;;;5007638;28;45297;-77
2023/01/14 11:15:34;;;;;;;;;3.00;3.00;;;;;;;;5009649;28;45408;-77
2023/01/14 11:18:15;;;;;;;;;4.33;3.00;;;;;;;;5019969;28;46055;-76
2023/01/14 11:20:41;;;;;;;;;7.67;7.00;;;;;;;;5011733;28;45321;-76
2023/01/14 11:23:16;;;;;;;;;7.00;3.33;;;;;;;;5012702;28;45365;-77
2023/01/14 11:25:41;;;;;;;;;2.00;2.00;;;;;;;;5014316;28;45756;-76
2023/01/14 11:28:07;;;;;;;;;1.33;1.00;;;;;;;;5015957;28;45435;-76
2023/01/14 11:30:33;;;;;;;;;2.67;2.67;;;;;;;;5016380;28;45383;-76
2023/01/14 11:32:59;;;;;;;;;4.00;3.00;;;;;;;;5023248;28;45279;-77
2023/01/14 11:35:28;;;;;;;;;1.33;1.33;;;;;;;;5015460;28;45501;-75
2023/01/14 11:37:54;;;;;;;;;7.00;7.00;;;;;;;;5004089;28;45454;-76
2023/01/14 11:43:14;;;;;;;;;2.67;2.00;;;;;;;;5021453;28;45462;-78
2023/01/14 11:45:40;;;;;;;;;1.33;1.33;;;;;;;;5010086;28;45529;-76
2023/01/14 11:48:25;;;;;;;;;5.00;5.00;;;;;;;;5019682;28;45241;-79
2023/01/14 11:51:01;;;;;;;;;1.67;1.67;;;;;;;;5012014;28;45311;-78
2023/01/14 11:53:43;;;;;;;;;7.00;7.00;;;;;;;;5012923;28;45285;-78
2023/01/14 11:56:34;;;;;;;;;1.00;1.00;;;;;;;;5014272;28;45283;-79
2023/01/14 11:59:17;;;;;;;;;2.33;2.33;;;;;;;;5017429;28;48619;-78
2023/01/14 12:01:47;;;;;;;;;2.00;1.00;;;;;;;;5004325;28;45268;-79
2023/01/14 12:04:16;;;;;;;;;8.33;5.00;;;;;;;;5016086;28;44802;-79
2023/01/14 12:06:44;;;;;;;;;3.33;3.33;;;;;;;;5013703;28;45433;-79
2023/01/14 12:09:13;;;;;;;;;3.33;3.33;;;;;;;;5005553;28;46400;-79
2023/01/14 12:11:41;;;;;;;;;4.33;4.33;;;;;;;;5018129;28;45401;-77
2023/01/14 12:17:34;;;;;;;;;2.00;2.00;;;;;;;;5015824;28;45348;-78
2023/01/14 12:20:07;;;;;;;;;3.33;3.33;;;;;;;;4999230;28;45314;-78
2023/01/14 12:22:34;;;;;;;;;2.00;2.00;;;;;;;;4997381;28;45574;-78
2023/01/14 12:25:04;;;;;;;;;2.67;2.67;;;;;;;;5005318;28;45394;-78
2023/01/14 12:27:44;;;;;;;;;2.00;2.00;;;;;;;;5010478;28;45606;-77
2023/01/14 12:30:10;;;;;;;;;4.00;3.00;;;;;;;;5004499;28;45225;-78
2023/01/14 12:32:36;;;;;;;;;1.00;1.00;;;;;;;;5012399;28;45237;-74
2023/01/14 12:35:02;;;;;;;;;2.00;2.00;;;;;;;;5012877;28;45496;-78
2023/01/14 12:37:32;;;;;;;;;2.67;2.00;;;;;;;;5009775;28;45530;-77
2023/01/14 12:45:41;;;;;;;;;3.67;2.33;;;;;;;;5015997;28;45376;-78
2023/01/14 12:45:54;;;;;;;;;0.00;0.00;;;;;;;;5005957;28;45400;-80
2023/01/14 12:48:20;;;;;;;;;3.00;3.00;;;;;;;;5016606;28;47140;-77
2023/01/14 12:50:58;;;;;;;;;3.33;3.33;;;;;;;;5011621;28;47221;-78
2023/01/14 12:53:26;;;;;;;;;9.33;7.00;;;;;;;;5016185;28;45303;-78
2023/01/14 12:55:52;;;;;;;;;4.33;4.00;;;;;;;;5017986;28;45545;-79
2023/01/14 12:58:21;;;;;;;;;4.00;4.00;;;;;;;;5019386;28;45241;-83
2023/01/14 13:00:54;;;;;;;;;3.00;3.00;;;;;;;;5004862;28;45564;-79
2023/01/14 13:03:39;;;;;;;;;2.00;2.00;;;;;;;;4999736;28;45351;-76
2023/01/14 13:06:10;;;;;;;;;2.00;2.00;;;;;;;;5012007;28;45434;-80
2023/01/14 13:08:37;;;;;;;;;9.33;5.00;;;;;;;;5018249;28;45289;-82
2023/01/14 13:11:22;;;;;;;;;3.00;3.00;;;;;;;;5012122;28;47260;-80
2023/01/14 13:13:52;;;;;;;;;2.00;2.00;;;;;;;;5007977;28;45418;-80
2023/01/14 13:16:30;;;;;;;;;2.00;2.00;;;;;;;;5006133;28;45344;-80
2023/01/14 13:18:57;;;;;;;;;2.00;2.00;;;;;;;;5009683;28;45253;-80
2023/01/14 13:21:41;;;;;;;;;5.00;3.00;;;;;;;;5009615;28;45408;-80
2023/01/14 13:24:26;;;;;;;;;6.67;6.67;;;;;;;;5015207;28;45324;-81
2023/01/14 13:26:53;;;;;;;;;3.00;2.00;;;;;;;;5014974;28;45379;-81
2023/01/14 13:29:20;;;;;;;;;4.33;3.00;;;;;;;;5009732;28;45343;-77
2023/01/14 13:31:46;;;;;;;;;5.00;5.00;;;;;;;;5016305;28;46069;-81
2023/01/14 13:34:21;;;;;;;;;3.00;3.00;;;;;;;;5020065;28;45524;-82
2023/01/14 13:36:46;;;;;;;;;3.00;3.00;;;;;;;;5019962;28;45304;-82
2023/01/14 13:39:17;;;;;;;;;3.00;2.33;;;;;;;;5020712;28;45812;-78
2023/01/14 13:41:46;;;;;;;;;5.00;4.00;;;;;;;;5015246;28;45375;-81
2023/01/14 13:44:31;;;;;;;;;3.00;3.00;;;;;;;;5013330;28;45505;-82
2023/01/14 13:47:01;;;;;;;;;4.67;4.33;;;;;;;;5017823;28;45493;-81
2023/01/14 13:49:36;;;;;;;;;3.33;3.33;;;;;;;;5014383;28;45352;-80
2023/01/14 13:52:22;;;;;;;;;7.00;5.67;;;;;;;;5017614;28;46081;-79
2023/01/14 13:54:56;;;;;;;;;5.00;4.00;;;;;;;;5007197;28;45466;-80
2023/01/14 13:57:31;;;;;;;;;4.00;3.00;;;;;;;;5017657;28;45251;-82
2023/01/14 13:59:58;;;;;;;;;2.00;2.00;;;;;;;;5011610;28;45466;-80
2023/01/14 14:02:39;;;;;;;;;2.33;1.00;;;;;;;;5010982;28;45745;-79
2023/01/14 14:05:19;;;;;;;;;3.33;2.67;;;;;;;;5012573;28;45555;-79
2023/01/14 14:07:44;;;;;;;;;3.67;3.67;;;;;;;;5016054;28;45323;-79
2023/01/14 14:10:11;;;;;;;;;6.67;4.00;;;;;;;;5013858;28;45364;-77
2023/01/14 14:15:24;;;;;;;;;9.00;8.00;;;;;;;;5013843;28;46344;-77
2023/01/14 14:17:51;;;;;;;;;1.67;1.67;;;;;;;;5018235;28;45366;-80
2023/01/14 14:20:18;;;;;;;;;3.67;3.00;;;;;;;;5019605;28;45592;-78
2023/01/14 14:22:46;;;;;;;;;8.67;5.67;;;;;;;;5018671;28;45331;-80
2023/01/14 14:25:20;;;;;;;;;13.00;10.67;;;;;;;;5018378;28;45267;-81
2023/01/14 14:27:47;;;;;;;;;1.67;1.67;;;;;;;;5019359;28;45382;-79
2023/01/14 14:30:20;;;;;;;;;7.67;6.00;;;;;;;;5016573;28;45292;-81
2023/01/14 14:32:46;;;;;;;;;9.67;8.67;;;;;;;;5016901;28;45426;-80
2023/01/14 14:35:12;;;;;;;;;4.33;4.33;;;;;;;;5013827;28;45418;-82
2023/01/14 14:37:38;;;;;;;;;4.00;3.00;;;;;;;;5022298;28;45347;-82
2023/01/14 14:40:06;;;;;;;;;4.00;2.00;;;;;;;;5017230;28;45290;-82
2023/01/14 14:42:32;;;;;;;;;2.00;2.00;;;;;;;;5014735;28;46812;-80
2023/01/14 14:44:59;;;;;;;;;2.00;2.00;;;;;;;;5015188;28;45396;-81
2023/01/14 14:47:28;;;;;;;;;1.00;1.00;;;;;;;;5014143;28;45529;-80
2023/01/14 14:49:54;;;;;;;;;3.33;3.33;;;;;;;;5011385;28;45348;-79
2023/01/14 14:52:20;;;;;;;;;2.00;2.00;;;;;;;;5004688;28;45544;-80
2023/01/14 14:54:49;;;;;;;;;2.00;2.00;;;;;;;;5007638;28;45380;-82
2023/01/14 14:57:15;;;;;;;;;2.00;2.00;;;;;;;;5008168;28;45620;-80
2023/01/14 14:59:40;;;;;;;;;1.00;1.00;;;;;;;;5009011;28;45467;-79
2023/01/14 15:02:18;;;;;;;;;3.00;2.00;;;;;;;;5004776;28;45426;-80
2023/01/14 15:04:44;;;;;;;;;1.67;1.00;;;;;;;;5013545;28;45418;-80
2023/01/14 15:07:09;;;;;;;;;1.00;1.00;;;;;;;;5008274;28;45310;-76
2023/01/14 15:09:35;;;;;;;;;2.00;1.00;;;;;;;;5012830;28;45432;-80
2023/01/14 15:12:01;;;;;;;;;0.00;0.00;;;;;;;;5005115;28;48573;-78
2023/01/14 15:14:28;;;;;;;;;4.67;3.00;;;;;;;;5012625;28;45533;-79
2023/01/14 15:16:54;;;;;;;;;1.00;1.00;;;;;;;;5002964;28;45423;-78
2023/01/14 15:19:20;;;;;;;;;3.00;2.00;;;;;;;;5021111;28;45644;-80
2023/01/14 15:21:46;;;;;;;;;2.33;2.00;;;;;;;;5010653;28;45287;-79
2023/01/14 15:24:15;;;;;;;;;1.00;1.00;;;;;;;;5017562;28;45529;-80
2023/01/14 15:26:41;;;;;;;;;2.00;1.00;;;;;;;;5017218;28;45193;-79
2023/01/14 15:29:15;;;;;;;;;6.33;6.33;;;;;;;;5016960;28;45360;-79
2023/01/14 15:31:40;;;;;;;;;6.00;5.00;;;;;;;;5004705;28;45480;-80